sensor_id;sensor_type;location;lat;lon;timestamp;P1;durP1;ratioP1;P2;durP2;ratioP2
31734;SDS011;18313;48.518;9.124;2022-07-22T00:01:35;8.07;;;4.88;;
31734;SDS011;18313;48.518;9.124;2022-07-22T00:04:22;7.32;;;4.95;;
31734;SDS011;18313;48.518;9.124;2022-07-22T00:07:09;6.43;;;4.95;;
31734;SDS011;18313;48.518;9.124;2022-07-22T00:09:56;6.85;;;5.13;;
31734;SDS011;18313;48.518;9.124;2022-07-22T00:12:43;7.65;;;5.13;;
31734;SDS011;18313;48.518;9.124;2022-07-22T00:15:30;6.47;;;4.72;;
31734;SDS011;18313;48.518;9.124;2022-07-22T00:18:17;6.43;;;4.90;;
31734;SDS011;18313;48.518;9.124;2022-07-22T00:21:04;9.10;;;5.53;;
31734;SDS011;18313;48.518;9.124;2022-07-22T00:23:56;9.20;;;5.68;;
31734;SDS011;18313;48.518;9.124;2022-07-22T00:26:43;7.72;;;5.15;;
31734;SDS011;18313;48.518;9.124;2022-07-22T00:29:30;9.05;;;4.78;;
31734;SDS011;18313;48.518;9.124;2022-07-22T00:32:17;7.40;;;5.20;;
31734;SDS011;18313;48.518;9.124;2022-07-22T00:35:04;8.10;;;5.40;;
31734;SDS011;18313;48.518;9.124;2022-07-22T00:37:52;8.25;;;5.35;;
31734;SDS011;18313;48.518;9.124;2022-07-22T00:40:39;7.82;;;5.72;;
31734;SDS011;18313;48.518;9.124;2022-07-22T00:43:26;8.02;;;5.38;;
31734;SDS011;18313;48.518;9.124;2022-07-22T00:46:14;8.88;;;5.18;;
31734;SDS011;18313;48.518;9.124;2022-07-22T00:49:02;9.73;;;5.35;;
31734;SDS011;18313;48.518;9.124;2022-07-22T00:51:50;8.07;;;5.97;;
31734;SDS011;18313;48.518;9.124;2022-07-22T00:54:37;7.93;;;5.40;;
31734;SDS011;18313;48.518;9.124;2022-07-22T00:57:24;9.13;;;5.55;;
31734;SDS011;18313;48.518;9.124;2022-07-22T01:00:13;7.53;;;5.80;;
31734;SDS011;18313;48.518;9.124;2022-07-22T01:03:03;8.80;;;5.88;;
31734;SDS011;18313;48.518;9.124;2022-07-22T01:05:49;6.63;;;5.22;;
31734;SDS011;18313;48.518;9.124;2022-07-22T01:08:36;8.30;;;5.78;;
31734;SDS011;18313;48.518;9.124;2022-07-22T01:11:25;8.05;;;5.82;;
31734;SDS011;18313;48.518;9.124;2022-07-22T01:14:12;9.73;;;5.78;;
31734;SDS011;18313;48.518;9.124;2022-07-22T01:16:59;8.60;;;5.40;;
31734;SDS011;18313;48.518;9.124;2022-07-22T01:19:46;10.02;;;5.60;;
31734;SDS011;18313;48.518;9.124;2022-07-22T01:22:33;9.23;;;6.00;;
31734;SDS011;18313;48.518;9.124;2022-07-22T01:25:20;8.20;;;5.72;;
31734;SDS011;18313;48.518;9.124;2022-07-22T01:28:07;8.00;;;5.53;;
31734;SDS011;18313;48.518;9.124;2022-07-22T01:30:54;10.32;;;6.35;;
31734;SDS011;18313;48.518;9.124;2022-07-22T01:33:41;9.48;;;5.93;;
31734;SDS011;18313;48.518;9.124;2022-07-22T01:36:28;8.05;;;5.63;;
31734;SDS011;18313;48.518;9.124;2022-07-22T01:39:16;9.30;;;6.05;;
31734;SDS011;18313;48.518;9.124;2022-07-22T01:42:03;9.43;;;5.68;;
31734;SDS011;18313;48.518;9.124;2022-07-22T01:44:50;7.90;;;5.63;;
31734;SDS011;18313;48.518;9.124;2022-07-22T01:47:37;7.03;;;5.80;;
31734;SDS011;18313;48.518;9.124;2022-07-22T01:50:24;9.65;;;5.68;;
31734;SDS011;18313;48.518;9.124;2022-07-22T01:53:11;9.18;;;5.95;;
31734;SDS011;18313;48.518;9.124;2022-07-22T01:56:00;8.00;;;6.00;;
31734;SDS011;18313;48.518;9.124;2022-07-22T01:58:47;10.20;;;5.97;;
31734;SDS011;18313;48.518;9.124;2022-07-22T02:01:35;10.90;;;6.18;;
31734;SDS011;18313;48.518;9.124;2022-07-22T02:04:22;9.40;;;6.22;;
31734;SDS011;18313;48.518;9.124;2022-07-22T02:07:12;9.05;;;6.22;;
31734;SDS011;18313;48.518;9.124;2022-07-22T02:09:59;10.45;;;6.22;;
31734;SDS011;18313;48.518;9.124;2022-07-22T02:12:46;9.57;;;6.97;;
31734;SDS011;18313;48.518;9.124;2022-07-22T02:15:33;8.38;;;6.00;;
31734;SDS011;18313;48.518;9.124;2022-07-22T02:18:20;9.70;;;6.47;;
31734;SDS011;18313;48.518;9.124;2022-07-22T02:21:07;8.40;;;6.00;;
31734;SDS011;18313;48.518;9.124;2022-07-22T02:23:54;10.23;;;6.38;;
31734;SDS011;18313;48.518;9.124;2022-07-22T02:26:41;10.38;;;6.30;;
31734;SDS011;18313;48.518;9.124;2022-07-22T02:29:29;10.27;;;6.75;;
31734;SDS011;18313;48.518;9.124;2022-07-22T02:32:16;11.10;;;6.25;;
31734;SDS011;18313;48.518;9.124;2022-07-22T02:35:03;9.98;;;6.95;;
31734;SDS011;18313;48.518;9.124;2022-07-22T02:37:51;10.93;;;6.78;;
31734;SDS011;18313;48.518;9.124;2022-07-22T02:40:38;10.05;;;6.90;;
31734;SDS011;18313;48.518;9.124;2022-07-22T02:43:25;10.27;;;6.55;;
31734;SDS011;18313;48.518;9.124;2022-07-22T02:46:12;11.00;;;8.23;;
31734;SDS011;18313;48.518;9.124;2022-07-22T02:48:59;10.40;;;7.45;;
31734;SDS011;18313;48.518;9.124;2022-07-22T02:51:46;8.18;;;7.13;;
31734;SDS011;18313;48.518;9.124;2022-07-22T02:54:33;10.52;;;7.20;;
31734;SDS011;18313;48.518;9.124;2022-07-22T02:57:20;10.73;;;7.13;;
31734;SDS011;18313;48.518;9.124;2022-07-22T03:00:07;9.07;;;6.88;;
31734;SDS011;18313;48.518;9.124;2022-07-22T03:02:56;7.63;;;6.57;;
31734;SDS011;18313;48.518;9.124;2022-07-22T03:05:43;9.05;;;6.70;;
31734;SDS011;18313;48.518;9.124;2022-07-22T03:08:30;10.05;;;7.40;;
31734;SDS011;18313;48.518;9.124;2022-07-22T03:11:17;10.82;;;6.47;;
31734;SDS011;18313;48.518;9.124;2022-07-22T03:14:04;9.05;;;6.55;;
31734;SDS011;18313;48.518;9.124;2022-07-22T03:16:51;8.95;;;6.05;;
31734;SDS011;18313;48.518;9.124;2022-07-22T03:19:38;10.30;;;6.78;;
31734;SDS011;18313;48.518;9.124;2022-07-22T03:22:24;8.77;;;6.60;;
31734;SDS011;18313;48.518;9.124;2022-07-22T03:25:11;10.63;;;6.72;;
31734;SDS011;18313;48.518;9.124;2022-07-22T03:27:58;9.50;;;6.32;;
31734;SDS011;18313;48.518;9.124;2022-07-22T03:30:45;9.82;;;6.53;;
31734;SDS011;18313;48.518;9.124;2022-07-22T03:33:33;10.38;;;6.95;;
31734;SDS011;18313;48.518;9.124;2022-07-22T03:36:20;11.07;;;6.97;;
31734;SDS011;18313;48.518;9.124;2022-07-22T03:39:07;9.02;;;6.78;;
31734;SDS011;18313;48.518;9.124;2022-07-22T03:41:54;10.90;;;6.95;;
31734;SDS011;18313;48.518;9.124;2022-07-22T03:44:41;9.18;;;6.80;;
31734;SDS011;18313;48.518;9.124;2022-07-22T03:47:28;9.02;;;6.97;;
31734;SDS011;18313;48.518;9.124;2022-07-22T03:50:15;9.57;;;6.95;;
31734;SDS011;18313;48.518;9.124;2022-07-22T03:53:01;11.40;;;7.63;;
31734;SDS011;18313;48.518;9.124;2022-07-22T03:55:48;12.05;;;8.43;;
31734;SDS011;18313;48.518;9.124;2022-07-22T03:58:36;10.32;;;8.48;;
31734;SDS011;18313;48.518;9.124;2022-07-22T04:01:23;17.75;;;12.20;;
31734;SDS011;18313;48.518;9.124;2022-07-22T04:04:10;18.00;;;13.68;;
31734;SDS011;18313;48.518;9.124;2022-07-22T04:06:57;19.70;;;15.05;;
31734;SDS011;18313;48.518;9.124;2022-07-22T04:09:44;19.42;;;14.95;;
31734;SDS011;18313;48.518;9.124;2022-07-22T04:12:34;19.90;;;14.93;;
31734;SDS011;18313;48.518;9.124;2022-07-22T04:15:22;19.58;;;15.27;;
31734;SDS011;18313;48.518;9.124;2022-07-22T04:18:10;20.25;;;15.15;;
31734;SDS011;18313;48.518;9.124;2022-07-22T04:20:58;19.48;;;13.77;;
31734;SDS011;18313;48.518;9.124;2022-07-22T04:23:45;19.95;;;13.93;;
31734;SDS011;18313;48.518;9.124;2022-07-22T04:26:32;16.17;;;13.02;;
31734;SDS011;18313;48.518;9.124;2022-07-22T04:29:19;18.08;;;13.10;;
31734;SDS011;18313;48.518;9.124;2022-07-22T04:32:06;16.23;;;12.18;;
31734;SDS011;18313;48.518;9.124;2022-07-22T04:34:53;15.20;;;12.15;;
31734;SDS011;18313;48.518;9.124;2022-07-22T04:37:40;15.68;;;12.25;;
31734;SDS011;18313;48.518;9.124;2022-07-22T04:40:27;15.70;;;12.07;;
31734;SDS011;18313;48.518;9.124;2022-07-22T04:43:14;18.40;;;12.88;;
31734;SDS011;18313;48.518;9.124;2022-07-22T04:46:01;19.92;;;12.55;;
31734;SDS011;18313;48.518;9.124;2022-07-22T04:48:48;18.65;;;12.75;;
31734;SDS011;18313;48.518;9.124;2022-07-22T04:51:34;16.88;;;11.23;;
31734;SDS011;18313;48.518;9.124;2022-07-22T04:54:21;18.00;;;11.10;;
31734;SDS011;18313;48.518;9.124;2022-07-22T04:57:08;17.38;;;12.65;;
31734;SDS011;18313;48.518;9.124;2022-07-22T04:59:55;22.60;;;16.92;;
31734;SDS011;18313;48.518;9.124;2022-07-22T05:02:42;22.65;;;16.02;;
31734;SDS011;18313;48.518;9.124;2022-07-22T05:05:29;22.75;;;16.60;;
31734;SDS011;18313;48.518;9.124;2022-07-22T05:08:16;18.50;;;12.75;;
31734;SDS011;18313;48.518;9.124;2022-07-22T05:11:06;17.70;;;13.38;;
31734;SDS011;18313;48.518;9.124;2022-07-22T05:13:53;16.55;;;11.70;;
31734;SDS011;18313;48.518;9.124;2022-07-22T05:16:40;19.05;;;11.38;;
31734;SDS011;18313;48.518;9.124;2022-07-22T05:19:27;13.27;;;10.13;;
31734;SDS011;18313;48.518;9.124;2022-07-22T05:22:14;14.38;;;10.48;;
31734;SDS011;18313;48.518;9.124;2022-07-22T05:25:02;17.70;;;9.40;;
31734;SDS011;18313;48.518;9.124;2022-07-22T05:27:52;12.65;;;8.93;;
31734;SDS011;18313;48.518;9.124;2022-07-22T05:30:40;12.93;;;8.63;;
31734;SDS011;18313;48.518;9.124;2022-07-22T05:33:27;11.48;;;8.27;;
31734;SDS011;18313;48.518;9.124;2022-07-22T05:36:14;13.02;;;8.25;;
31734;SDS011;18313;48.518;9.124;2022-07-22T05:39:01;11.45;;;7.78;;
31734;SDS011;18313;48.518;9.124;2022-07-22T05:41:48;12.13;;;8.10;;
31734;SDS011;18313;48.518;9.124;2022-07-22T05:44:41;11.57;;;8.20;;
31734;SDS011;18313;48.518;9.124;2022-07-22T05:47:28;10.75;;;7.65;;
31734;SDS011;18313;48.518;9.124;2022-07-22T05:50:14;11.05;;;7.95;;
31734;SDS011;18313;48.518;9.124;2022-07-22T05:53:01;10.88;;;8.07;;
31734;SDS011;18313;48.518;9.124;2022-07-22T05:55:51;10.18;;;7.60;;
31734;SDS011;18313;48.518;9.124;2022-07-22T05:58:38;10.98;;;7.93;;
31734;SDS011;18313;48.518;9.124;2022-07-22T06:01:27;13.85;;;7.93;;
31734;SDS011;18313;48.518;9.124;2022-07-22T06:04:14;11.70;;;8.15;;
31734;SDS011;18313;48.518;9.124;2022-07-22T06:07:01;10.52;;;7.57;;
31734;SDS011;18313;48.518;9.124;2022-07-22T06:09:48;9.88;;;8.27;;
31734;SDS011;18313;48.518;9.124;2022-07-22T06:12:35;11.90;;;7.32;;
31734;SDS011;18313;48.518;9.124;2022-07-22T06:15:22;11.93;;;8.05;;
31734;SDS011;18313;48.518;9.124;2022-07-22T06:18:12;10.68;;;8.35;;
31734;SDS011;18313;48.518;9.124;2022-07-22T06:20:59;11.60;;;8.10;;
31734;SDS011;18313;48.518;9.124;2022-07-22T06:23:46;10.10;;;7.75;;
31734;SDS011;18313;48.518;9.124;2022-07-22T06:26:33;10.68;;;8.25;;
31734;SDS011;18313;48.518;9.124;2022-07-22T06:29:21;10.00;;;7.93;;
31734;SDS011;18313;48.518;9.124;2022-07-22T06:32:08;12.05;;;8.30;;
31734;SDS011;18313;48.518;9.124;2022-07-22T06:34:56;11.90;;;7.63;;
31734;SDS011;18313;48.518;9.124;2022-07-22T06:37:43;12.45;;;7.47;;
31734;SDS011;18313;48.518;9.124;2022-07-22T06:40:50;9.98;;;7.20;;
31734;SDS011;18313;48.518;9.124;2022-07-22T06:43:37;10.95;;;7.95;;
31734;SDS011;18313;48.518;9.124;2022-07-22T06:46:24;10.63;;;8.02;;
31734;SDS011;18313;48.518;9.124;2022-07-22T06:49:11;15.15;;;9.13;;
31734;SDS011;18313;48.518;9.124;2022-07-22T06:52:01;12.10;;;8.07;;
31734;SDS011;18313;48.518;9.124;2022-07-22T06:54:48;10.70;;;8.35;;
31734;SDS011;18313;48.518;9.124;2022-07-22T06:57:35;12.55;;;8.35;;
31734;SDS011;18313;48.518;9.124;2022-07-22T07:00:22;15.77;;;8.18;;
31734;SDS011;18313;48.518;9.124;2022-07-22T07:03:09;11.93;;;8.60;;
31734;SDS011;18313;48.518;9.124;2022-07-22T07:06:17;9.30;;;7.93;;
31734;SDS011;18313;48.518;9.124;2022-07-22T07:09:03;12.70;;;8.48;;
31734;SDS011;18313;48.518;9.124;2022-07-22T07:11:50;9.90;;;8.13;;
31734;SDS011;18313;48.518;9.124;2022-07-22T07:14:37;11.98;;;8.25;;
31734;SDS011;18313;48.518;9.124;2022-07-22T07:17:29;9.55;;;8.07;;
31734;SDS011;18313;48.518;9.124;2022-07-22T07:20:16;13.10;;;8.45;;
31734;SDS011;18313;48.518;9.124;2022-07-22T07:23:04;11.93;;;8.60;;
31734;SDS011;18313;48.518;9.124;2022-07-22T07:25:51;12.13;;;9.00;;
31734;SDS011;18313;48.518;9.124;2022-07-22T07:28:39;9.98;;;7.90;;
31734;SDS011;18313;48.518;9.124;2022-07-22T07:31:27;9.75;;;7.35;;
31734;SDS011;18313;48.518;9.124;2022-07-22T07:34:14;12.27;;;8.90;;
31734;SDS011;18313;48.518;9.124;2022-07-22T07:37:01;11.70;;;9.10;;
31734;SDS011;18313;48.518;9.124;2022-07-22T07:39:47;12.18;;;9.02;;
31734;SDS011;18313;48.518;9.124;2022-07-22T07:42:34;11.65;;;8.77;;
31734;SDS011;18313;48.518;9.124;2022-07-22T07:45:30;11.32;;;9.10;;
31734;SDS011;18313;48.518;9.124;2022-07-22T07:48:18;10.35;;;8.27;;
31734;SDS011;18313;48.518;9.124;2022-07-22T07:51:05;11.70;;;8.65;;
31734;SDS011;18313;48.518;9.124;2022-07-22T07:53:52;13.38;;;8.32;;
31734;SDS011;18313;48.518;9.124;2022-07-22T07:56:40;13.63;;;7.60;;
31734;SDS011;18313;48.518;9.124;2022-07-22T07:59:27;13.27;;;8.20;;
31734;SDS011;18313;48.518;9.124;2022-07-22T08:02:16;11.10;;;7.70;;
31734;SDS011;18313;48.518;9.124;2022-07-22T08:05:03;8.82;;;7.75;;
31734;SDS011;18313;48.518;9.124;2022-07-22T08:07:52;10.55;;;8.15;;
31734;SDS011;18313;48.518;9.124;2022-07-22T08:10:39;12.82;;;8.20;;
31734;SDS011;18313;48.518;9.124;2022-07-22T08:13:45;9.85;;;6.90;;
31734;SDS011;18313;48.518;9.124;2022-07-22T08:16:31;10.82;;;7.78;;
31734;SDS011;18313;48.518;9.124;2022-07-22T08:19:18;13.00;;;7.65;;
31734;SDS011;18313;48.518;9.124;2022-07-22T08:22:05;12.65;;;8.88;;
31734;SDS011;18313;48.518;9.124;2022-07-22T08:24:52;10.98;;;7.38;;
31734;SDS011;18313;48.518;9.124;2022-07-22T08:27:40;13.23;;;7.82;;
31734;SDS011;18313;48.518;9.124;2022-07-22T08:30:27;13.60;;;8.10;;
31734;SDS011;18313;48.518;9.124;2022-07-22T08:33:15;8.60;;;7.00;;
31734;SDS011;18313;48.518;9.124;2022-07-22T08:36:02;11.13;;;7.63;;
31734;SDS011;18313;48.518;9.124;2022-07-22T08:38:49;11.18;;;7.63;;
31734;SDS011;18313;48.518;9.124;2022-07-22T08:41:37;9.07;;;6.60;;
31734;SDS011;18313;48.518;9.124;2022-07-22T08:44:25;9.48;;;6.95;;
31734;SDS011;18313;48.518;9.124;2022-07-22T08:47:20;10.65;;;7.53;;
31734;SDS011;18313;48.518;9.124;2022-07-22T08:50:26;10.25;;;7.18;;
31734;SDS011;18313;48.518;9.124;2022-07-22T08:53:13;11.23;;;6.85;;
31734;SDS011;18313;48.518;9.124;2022-07-22T08:56:00;9.90;;;6.47;;
31734;SDS011;18313;48.518;9.124;2022-07-22T08:58:47;8.35;;;5.95;;
31734;SDS011;18313;48.518;9.124;2022-07-22T09:01:34;12.20;;;6.10;;
31734;SDS011;18313;48.518;9.124;2022-07-22T09:04:21;10.00;;;5.88;;
31734;SDS011;18313;48.518;9.124;2022-07-22T09:07:08;11.15;;;5.63;;
31734;SDS011;18313;48.518;9.124;2022-07-22T09:09:56;7.35;;;5.70;;
31734;SDS011;18313;48.518;9.124;2022-07-22T09:15:48;6.55;;;4.80;;
31734;SDS011;18313;48.518;9.124;2022-07-22T09:18:50;7.88;;;5.63;;
31734;SDS011;18313;48.518;9.124;2022-07-22T09:21:39;7.95;;;5.70;;
31734;SDS011;18313;48.518;9.124;2022-07-22T09:24:29;7.93;;;5.40;;
31734;SDS011;18313;48.518;9.124;2022-07-22T09:27:24;9.15;;;5.47;;
31734;SDS011;18313;48.518;9.124;2022-07-22T09:30:16;9.07;;;5.47;;
31734;SDS011;18313;48.518;9.124;2022-07-22T09:33:07;7.63;;;4.85;;
31734;SDS011;18313;48.518;9.124;2022-07-22T09:36:01;8.43;;;5.03;;
31734;SDS011;18313;48.518;9.124;2022-07-22T09:38:49;7.18;;;5.10;;
31734;SDS011;18313;48.518;9.124;2022-07-22T09:41:37;7.82;;;4.82;;
31734;SDS011;18313;48.518;9.124;2022-07-22T09:44:43;8.20;;;5.25;;
31734;SDS011;18313;48.518;9.124;2022-07-22T09:47:32;7.85;;;5.25;;
31734;SDS011;18313;48.518;9.124;2022-07-22T09:50:31;10.45;;;5.30;;
31734;SDS011;18313;48.518;9.124;2022-07-22T09:53:22;6.72;;;4.95;;
31734;SDS011;18313;48.518;9.124;2022-07-22T09:56:10;6.38;;;4.97;;
31734;SDS011;18313;48.518;9.124;2022-07-22T09:58:57;6.03;;;4.65;;
31734;SDS011;18313;48.518;9.124;2022-07-22T10:01:45;8.38;;;5.45;;
31734;SDS011;18313;48.518;9.124;2022-07-22T10:04:36;8.80;;;5.13;;
31734;SDS011;18313;48.518;9.124;2022-07-22T10:07:25;8.35;;;4.93;;
31734;SDS011;18313;48.518;9.124;2022-07-22T10:10:15;8.45;;;5.03;;
31734;SDS011;18313;48.518;9.124;2022-07-22T10:13:06;7.30;;;4.95;;
31734;SDS011;18313;48.518;9.124;2022-07-22T10:15:54;6.30;;;4.63;;
31734;SDS011;18313;48.518;9.124;2022-07-22T10:18:45;8.20;;;5.05;;
31734;SDS011;18313;48.518;9.124;2022-07-22T10:21:33;8.55;;;5.13;;
31734;SDS011;18313;48.518;9.124;2022-07-22T10:24:21;7.20;;;5.10;;
31734;SDS011;18313;48.518;9.124;2022-07-22T10:27:10;8.20;;;5.38;;
31734;SDS011;18313;48.518;9.124;2022-07-22T10:29:57;8.73;;;4.78;;
31734;SDS011;18313;48.518;9.124;2022-07-22T10:33:00;7.03;;;4.80;;
31734;SDS011;18313;48.518;9.124;2022-07-22T10:39:06;8.40;;;4.97;;
31734;SDS011;18313;48.518;9.124;2022-07-22T10:41:55;8.10;;;4.97;;
31734;SDS011;18313;48.518;9.124;2022-07-22T10:44:48;6.43;;;4.63;;
31734;SDS011;18313;48.518;9.124;2022-07-22T10:47:54;6.18;;;4.47;;
31734;SDS011;18313;48.518;9.124;2022-07-22T10:50:43;6.43;;;4.82;;
31734;SDS011;18313;48.518;9.124;2022-07-22T10:56:42;6.72;;;4.85;;
31734;SDS011;18313;48.518;9.124;2022-07-22T10:59:31;6.38;;;4.63;;
31734;SDS011;18313;48.518;9.124;2022-07-22T11:02:18;7.65;;;4.63;;
31734;SDS011;18313;48.518;9.124;2022-07-22T11:05:06;7.18;;;4.68;;
31734;SDS011;18313;48.518;9.124;2022-07-22T11:07:54;6.90;;;4.30;;
31734;SDS011;18313;48.518;9.124;2022-07-22T11:10:48;6.88;;;4.60;;
31734;SDS011;18313;48.518;9.124;2022-07-22T11:13:36;7.15;;;4.68;;
31734;SDS011;18313;48.518;9.124;2022-07-22T11:16:25;7.82;;;4.28;;
31734;SDS011;18313;48.518;9.124;2022-07-22T11:19:14;6.90;;;4.30;;
31734;SDS011;18313;48.518;9.124;2022-07-22T11:22:06;6.88;;;4.53;;
31734;SDS011;18313;48.518;9.124;2022-07-22T11:24:54;7.00;;;4.65;;
31734;SDS011;18313;48.518;9.124;2022-07-22T11:27:47;7.93;;;4.30;;
31734;SDS011;18313;48.518;9.124;2022-07-22T11:30:38;6.35;;;4.28;;
31734;SDS011;18313;48.518;9.124;2022-07-22T11:33:25;6.53;;;4.43;;
31734;SDS011;18313;48.518;9.124;2022-07-22T11:36:12;7.00;;;4.30;;
31734;SDS011;18313;48.518;9.124;2022-07-22T11:39:00;5.80;;;3.80;;
31734;SDS011;18313;48.518;9.124;2022-07-22T11:41:47;6.20;;;4.07;;
31734;SDS011;18313;48.518;9.124;2022-07-22T11:44:36;5.90;;;4.20;;
31734;SDS011;18313;48.518;9.124;2022-07-22T11:47:24;6.50;;;4.13;;
31734;SDS011;18313;48.518;9.124;2022-07-22T11:50:11;5.97;;;4.32;;
31734;SDS011;18313;48.518;9.124;2022-07-22T11:53:01;6.82;;;4.50;;
31734;SDS011;18313;48.518;9.124;2022-07-22T11:55:48;7.03;;;4.30;;
31734;SDS011;18313;48.518;9.124;2022-07-22T11:58:37;5.78;;;4.50;;
31734;SDS011;18313;48.518;9.124;2022-07-22T12:01:27;8.27;;;4.40;;
31734;SDS011;18313;48.518;9.124;2022-07-22T12:04:33;6.63;;;4.45;;
31734;SDS011;18313;48.518;9.124;2022-07-22T12:07:20;6.47;;;4.38;;
31734;SDS011;18313;48.518;9.124;2022-07-22T12:10:08;6.13;;;4.22;;
31734;SDS011;18313;48.518;9.124;2022-07-22T12:12:55;6.55;;;4.50;;
31734;SDS011;18313;48.518;9.124;2022-07-22T12:15:42;10.43;;;4.68;;
31734;SDS011;18313;48.518;9.124;2022-07-22T12:18:38;5.70;;;4.00;;
31734;SDS011;18313;48.518;9.124;2022-07-22T12:21:26;5.47;;;4.03;;
31734;SDS011;18313;48.518;9.124;2022-07-22T12:24:24;6.82;;;4.30;;
31734;SDS011;18313;48.518;9.124;2022-07-22T12:27:19;9.30;;;4.20;;
31734;SDS011;18313;48.518;9.124;2022-07-22T12:30:12;6.97;;;4.30;;
31734;SDS011;18313;48.518;9.124;2022-07-22T12:33:00;6.10;;;4.50;;
31734;SDS011;18313;48.518;9.124;2022-07-22T12:35:58;8.70;;;4.38;;
31734;SDS011;18313;48.518;9.124;2022-07-22T12:38:47;6.45;;;4.15;;
31734;SDS011;18313;48.518;9.124;2022-07-22T12:41:33;7.18;;;3.92;;
31734;SDS011;18313;48.518;9.124;2022-07-22T12:44:30;5.95;;;4.20;;
31734;SDS011;18313;48.518;9.124;2022-07-22T12:50:26;5.22;;;4.07;;
31734;SDS011;18313;48.518;9.124;2022-07-22T12:53:15;6.63;;;4.00;;
31734;SDS011;18313;48.518;9.124;2022-07-22T12:56:04;6.70;;;4.20;;
31734;SDS011;18313;48.518;9.124;2022-07-22T12:58:53;5.82;;;4.00;;
31734;SDS011;18313;48.518;9.124;2022-07-22T13:01:40;5.93;;;4.00;;
31734;SDS011;18313;48.518;9.124;2022-07-22T13:04:27;5.15;;;3.83;;
31734;SDS011;18313;48.518;9.124;2022-07-22T13:07:14;6.20;;;4.13;;
31734;SDS011;18313;48.518;9.124;2022-07-22T13:10:05;5.85;;;4.10;;
31734;SDS011;18313;48.518;9.124;2022-07-22T13:12:53;7.72;;;4.30;;
31734;SDS011;18313;48.518;9.124;2022-07-22T13:15:41;5.18;;;3.67;;
31734;SDS011;18313;48.518;9.124;2022-07-22T13:18:28;5.57;;;3.80;;
31734;SDS011;18313;48.518;9.124;2022-07-22T13:21:15;6.97;;;4.40;;
31734;SDS011;18313;48.518;9.124;2022-07-22T13:24:01;6.57;;;3.97;;
31734;SDS011;18313;48.518;9.124;2022-07-22T13:26:48;5.55;;;3.78;;
31734;SDS011;18313;48.518;9.124;2022-07-22T13:29:35;5.22;;;4.05;;
31734;SDS011;18313;48.518;9.124;2022-07-22T13:32:22;5.60;;;3.63;;
31734;SDS011;18313;48.518;9.124;2022-07-22T13:35:29;7.15;;;3.88;;
31734;SDS011;18313;48.518;9.124;2022-07-22T13:38:16;5.97;;;4.00;;
31734;SDS011;18313;48.518;9.124;2022-07-22T13:41:03;5.93;;;3.70;;
31734;SDS011;18313;48.518;9.124;2022-07-22T13:44:02;6.50;;;4.00;;
31734;SDS011;18313;48.518;9.124;2022-07-22T13:46:56;5.18;;;3.70;;
31734;SDS011;18313;48.518;9.124;2022-07-22T13:49:44;4.78;;;3.70;;
31734;SDS011;18313;48.518;9.124;2022-07-22T13:52:37;5.55;;;3.95;;
31734;SDS011;18313;48.518;9.124;2022-07-22T13:55:24;5.20;;;3.65;;
31734;SDS011;18313;48.518;9.124;2022-07-22T13:58:11;7.70;;;4.03;;
31734;SDS011;18313;48.518;9.124;2022-07-22T14:00:59;6.47;;;4.40;;
31734;SDS011;18313;48.518;9.124;2022-07-22T14:03:46;5.10;;;3.88;;
31734;SDS011;18313;48.518;9.124;2022-07-22T14:06:33;6.72;;;4.30;;
31734;SDS011;18313;48.518;9.124;2022-07-22T14:09:21;6.05;;;4.30;;
31734;SDS011;18313;48.518;9.124;2022-07-22T14:12:23;5.50;;;3.80;;
31734;SDS011;18313;48.518;9.124;2022-07-22T14:15:10;6.97;;;4.30;;
31734;SDS011;18313;48.518;9.124;2022-07-22T14:17:58;7.03;;;4.45;;
31734;SDS011;18313;48.518;9.124;2022-07-22T14:20:46;6.10;;;4.10;;
31734;SDS011;18313;48.518;9.124;2022-07-22T14:23:33;6.25;;;3.63;;
31734;SDS011;18313;48.518;9.124;2022-07-22T14:26:20;6.40;;;4.00;;
31734;SDS011;18313;48.518;9.124;2022-07-22T14:29:07;5.43;;;4.20;;
31734;SDS011;18313;48.518;9.124;2022-07-22T14:31:54;5.15;;;3.85;;
31734;SDS011;18313;48.518;9.124;2022-07-22T14:34:41;5.72;;;4.22;;
31734;SDS011;18313;48.518;9.124;2022-07-22T14:37:28;5.82;;;4.03;;
31734;SDS011;18313;48.518;9.124;2022-07-22T14:40:14;5.95;;;4.18;;
31734;SDS011;18313;48.518;9.124;2022-07-22T14:43:01;6.63;;;3.65;;
31734;SDS011;18313;48.518;9.124;2022-07-22T14:46:08;6.03;;;3.75;;
31734;SDS011;18313;48.518;9.124;2022-07-22T14:48:56;6.45;;;3.80;;
31734;SDS011;18313;48.518;9.124;2022-07-22T14:51:43;6.03;;;3.92;;
31734;SDS011;18313;48.518;9.124;2022-07-22T14:54:30;5.55;;;3.88;;
31734;SDS011;18313;48.518;9.124;2022-07-22T14:57:17;6.35;;;4.20;;
31734;SDS011;18313;48.518;9.124;2022-07-22T15:00:04;5.88;;;3.70;;
31734;SDS011;18313;48.518;9.124;2022-07-22T15:02:52;6.00;;;3.72;;
31734;SDS011;18313;48.518;9.124;2022-07-22T15:05:39;8.02;;;4.00;;
31734;SDS011;18313;48.518;9.124;2022-07-22T15:08:27;6.55;;;4.03;;
31734;SDS011;18313;48.518;9.124;2022-07-22T15:11:14;6.18;;;4.07;;
31734;SDS011;18313;48.518;9.124;2022-07-22T15:14:01;5.88;;;4.00;;
31734;SDS011;18313;48.518;9.124;2022-07-22T15:16:48;8.13;;;4.07;;
31734;SDS011;18313;48.518;9.124;2022-07-22T15:19:35;6.03;;;4.20;;
31734;SDS011;18313;48.518;9.124;2022-07-22T15:22:22;5.40;;;4.03;;
31734;SDS011;18313;48.518;9.124;2022-07-22T15:25:11;5.38;;;3.92;;
31734;SDS011;18313;48.518;9.124;2022-07-22T15:27:58;5.68;;;4.07;;
31734;SDS011;18313;48.518;9.124;2022-07-22T15:31:06;6.13;;;4.20;;
31734;SDS011;18313;48.518;9.124;2022-07-22T15:33:52;7.70;;;4.03;;
31734;SDS011;18313;48.518;9.124;2022-07-22T15:36:40;6.45;;;4.18;;
31734;SDS011;18313;48.518;9.124;2022-07-22T15:39:27;6.03;;;3.80;;
31734;SDS011;18313;48.518;9.124;2022-07-22T15:42:14;7.22;;;3.67;;
31734;SDS011;18313;48.518;9.124;2022-07-22T15:45:01;5.85;;;3.92;;
31734;SDS011;18313;48.518;9.124;2022-07-22T15:47:48;5.85;;;4.03;;
31734;SDS011;18313;48.518;9.124;2022-07-22T15:50:35;6.82;;;3.83;;
31734;SDS011;18313;48.518;9.124;2022-07-22T15:53:22;5.20;;;3.90;;
31734;SDS011;18313;48.518;9.124;2022-07-22T15:56:10;7.05;;;4.28;;
31734;SDS011;18313;48.518;9.124;2022-07-22T15:58:57;5.53;;;4.00;;
31734;SDS011;18313;48.518;9.124;2022-07-22T16:02:14;8.23;;;4.43;;
31734;SDS011;18313;48.518;9.124;2022-07-22T16:05:01;6.43;;;4.05;;
31734;SDS011;18313;48.518;9.124;2022-07-22T16:07:49;6.25;;;3.90;;
31734;SDS011;18313;48.518;9.124;2022-07-22T16:10:36;4.88;;;3.50;;
31734;SDS011;18313;48.518;9.124;2022-07-22T16:13:23;6.32;;;3.80;;
31734;SDS011;18313;48.518;9.124;2022-07-22T16:16:09;5.40;;;3.70;;
31734;SDS011;18313;48.518;9.124;2022-07-22T16:18:56;5.57;;;3.50;;
31734;SDS011;18313;48.518;9.124;2022-07-22T16:21:44;6.50;;;3.70;;
31734;SDS011;18313;48.518;9.124;2022-07-22T16:24:31;5.93;;;3.85;;
31734;SDS011;18313;48.518;9.124;2022-07-22T16:27:18;8.32;;;3.80;;
31734;SDS011;18313;48.518;9.124;2022-07-22T16:30:14;5.45;;;3.53;;
31734;SDS011;18313;48.518;9.124;2022-07-22T16:33:01;4.90;;;3.50;;
31734;SDS011;18313;48.518;9.124;2022-07-22T16:35:47;4.53;;;3.70;;
31734;SDS011;18313;48.518;9.124;2022-07-22T16:38:34;5.43;;;3.70;;
31734;SDS011;18313;48.518;9.124;2022-07-22T16:41:21;5.28;;;4.00;;
31734;SDS011;18313;48.518;9.124;2022-07-22T16:44:12;6.95;;;3.47;;
31734;SDS011;18313;48.518;9.124;2022-07-22T16:46:59;6.50;;;3.85;;
31734;SDS011;18313;48.518;9.124;2022-07-22T16:49:46;4.50;;;3.33;;
31734;SDS011;18313;48.518;9.124;2022-07-22T16:52:33;6.63;;;3.97;;
31734;SDS011;18313;48.518;9.124;2022-07-22T16:55:20;5.38;;;3.85;;
31734;SDS011;18313;48.518;9.124;2022-07-22T16:58:07;6.93;;;3.58;;
31734;SDS011;18313;48.518;9.124;2022-07-22T17:00:54;7.38;;;4.00;;
31734;SDS011;18313;48.518;9.124;2022-07-22T17:03:41;5.53;;;3.70;;